Time;durP1;ratioP1;P1;durP2;ratioP2;P2;SDS_P1;SDS_P2;PMS_P1;PMS_P2;Temp;Humidity;BMP_temperature;BMP_pressure;BME280_temperature;BME280_humidity;BME280_pressure;Samples;Min_cycle;Max_cycle;Signal;HPM_P1;HPM_P2
2023/01/06 00:01:36;;;;;;;14.70;7.20;;;;;;;7.05;75.58;99876.72;124052;1098;104242;-78
2023/01/06 00:04:08;;;;;;;15.23;6.30;;;;;;;7.08;76.00;99880.33;123763;1098;104335;-77
2023/01/06 00:06:39;;;;;;;16.53;6.77;;;;;;;7.11;75.35;99882.18;123769;1099;104205;-77
2023/01/06 00:09:11;;;;;;;14.70;6.70;;;;;;;7.10;75.66;99878.66;123631;1099;104361;-77
2023/01/06 00:11:42;;;;;;;14.40;5.93;;;;;;;7.10;74.77;99876.05;123441;1099;104265;-77
2023/01/06 00:14:14;;;;;;;15.33;6.10;;;;;;;7.12;75.25;99889.16;123596;1099;104285;-77
2023/01/06 00:16:45;;;;;;;15.30;5.97;;;;;;;7.12;75.23;99889.16;123498;1099;104287;-77
2023/01/06 00:19:16;;;;;;;13.80;5.25;;;;;;;7.13;75.20;99891.83;123413;1099;104285;-77
2023/01/06 00:21:47;;;;;;;11.27;5.43;;;;;;;7.15;75.09;99890.19;123452;1099;104207;-78
2023/01/06 00:24:19;;;;;;;11.20;5.23;;;;;;;7.18;75.32;99899.84;123478;1099;104169;-77
2023/01/06 00:26:50;;;;;;;13.65;5.45;;;;;;;7.19;74.58;99897.30;123764;1099;104408;-78
2023/01/06 00:29:21;;;;;;;14.77;5.00;;;;;;;7.22;74.69;99906.97;123801;1099;104274;-77
2023/01/06 00:31:52;;;;;;;9.13;4.50;;;;;;;7.26;74.55;99910.58;123461;1099;104626;-78
2023/01/06 00:34:24;;;;;;;8.93;4.10;;;;;;;7.33;75.01;99897.84;123680;1099;104354;-77
2023/01/06 00:36:55;;;;;;;8.97;3.70;;;;;;;7.40;74.36;99900.69;123806;1099;104316;-77
2023/01/06 00:39:29;;;;;;;8.57;4.00;;;;;;;7.45;74.41;99897.44;123681;1099;104363;-78
2023/01/06 00:42:04;;;;;;;9.07;3.53;;;;;;;7.49;74.44;99906.27;123708;1099;104251;-78
2023/01/06 00:44:37;;;;;;;5.90;3.27;;;;;;;7.53;74.77;99910.78;123812;1098;104350;-77
2023/01/06 00:47:11;;;;;;;6.28;2.90;;;;;;;7.55;74.56;99914.33;123901;1099;104223;-77
2023/01/06 00:49:42;;;;;;;4.63;2.63;;;;;;;7.59;74.18;99908.41;123481;1099;104197;-77
2023/01/06 00:52:14;;;;;;;6.50;2.80;;;;;;;7.63;74.74;99917.23;123848;1099;104334;-77
2023/01/06 00:54:45;;;;;;;8.10;3.20;;;;;;;7.65;74.31;99913.86;123786;1099;104271;-77
2023/01/06 00:57:16;;;;;;;7.80;3.05;;;;;;;7.66;74.32;99917.35;123554;1099;104357;-77
2023/01/06 00:59:47;;;;;;;5.00;2.50;;;;;;;7.67;74.55;99916.53;123912;1099;104274;-76
2023/01/06 01:02:19;;;;;;;3.60;2.30;;;;;;;7.68;74.80;99913.98;123839;1099;104245;-78
2023/01/06 01:04:50;;;;;;;4.17;2.20;;;;;;;7.69;74.77;99917.47;123520;1099;104281;-78
2023/01/06 01:07:21;;;;;;;3.57;2.33;;;;;;;7.68;75.11;99918.30;123774;1099;104342;-78
2023/01/06 01:09:53;;;;;;;5.50;2.43;;;;;;;7.67;75.16;99914.80;123678;1099;104245;-77
2023/01/06 01:12:24;;;;;;;3.87;2.00;;;;;;;7.64;75.42;99912.07;124022;1098;104304;-77
2023/01/06 01:14:56;;;;;;;3.67;2.27;;;;;;;7.64;74.93;99911.19;123685;1099;104248;-77
2023/01/06 01:17:31;;;;;;;3.53;2.17;;;;;;;7.64;75.18;99916.42;123656;1099;104367;-78
2023/01/06 01:20:02;;;;;;;3.93;2.23;;;;;;;7.63;75.16;99912.02;123708;1099;104319;-78
2023/01/06 01:22:34;;;;;;;2.40;1.60;;;;;;;7.62;75.18;99908.52;123674;1099;104233;-77
2023/01/06 01:25:06;;;;;;;3.67;2.27;;;;;;;7.65;75.48;99905.12;123704;1099;104290;-76
2023/01/06 01:27:37;;;;;;;3.75;2.10;;;;;;;7.69;75.31;99904.41;123792;1099;104255;-77
2023/01/06 01:30:10;;;;;;;5.50;2.20;;;;;;;7.73;75.56;99912.42;123401;1099;104415;-77
2023/01/06 01:32:41;;;;;;;2.90;1.90;;;;;;;7.77;74.91;99907.31;123883;1099;107863;-77
2023/01/06 01:35:13;;;;;;;3.23;2.10;;;;;;;7.81;75.17;99919.67;123785;1099;104274;-77
2023/01/06 01:37:44;;;;;;;2.43;1.90;;;;;;;7.83;75.42;99913.65;123816;1099;104325;-77
2023/01/06 01:40:16;;;;;;;2.87;2.03;;;;;;;7.86;75.28;99921.59;123478;1099;104447;-77
2023/01/06 01:42:47;;;;;;;2.10;1.73;;;;;;;7.88;74.90;99917.34;123685;1099;104343;-79
2023/01/06 01:45:24;;;;;;;4.13;2.20;;;;;;;7.89;75.31;99924.33;123597;1099;104350;-77
2023/01/06 01:48:02;;;;;;;2.63;1.77;;;;;;;7.89;75.15;99919.10;123744;1099;104277;-77
2023/01/06 01:50:37;;;;;;;3.93;2.03;;;;;;;7.89;75.20;99919.10;123774;1099;104347;-78
2023/01/06 01:53:12;;;;;;;3.00;2.00;;;;;;;7.86;75.08;99911.15;123733;1099;104268;-78
2023/01/06 01:55:44;;;;;;;2.93;1.83;;;;;;;7.82;75.42;99910.98;123486;1099;104377;-78
2023/01/06 01:58:20;;;;;;;4.87;2.03;;;;;;;7.78;75.42;99919.55;123689;1098;104240;-78
2023/01/06 02:00:53;;;;;;;3.23;2.27;;;;;;;7.72;75.28;99915.85;123832;1099;104348;-77
2023/01/06 02:03:26;;;;;;;5.47;2.20;;;;;;;7.68;75.30;99906.14;123702;1099;110320;-78
2023/01/06 02:06:01;;;;;;;2.70;2.00;;;;;;;7.64;75.67;99903.36;123839;1099;104351;-78
2023/01/06 02:08:37;;;;;;;4.63;2.10;;;;;;;7.61;75.19;99908.47;123834;1099;104290;-77
2023/01/06 02:11:09;;;;;;;3.40;2.20;;;;;;;7.58;75.64;99916.18;123606;1099;104245;-78
2023/01/06 02:13:50;;;;;;;3.53;2.10;;;;;;;7.56;75.75;99914.39;123583;1099;104199;-78
2023/01/06 02:16:30;;;;;;;5.67;2.57;;;;;;;7.55;75.61;99917.82;123352;1101;104264;-79
2023/01/06 02:19:09;;;;;;;3.80;2.10;;;;;;;7.54;75.95;99909.93;123392;1099;104277;-77
2023/01/06 02:22:11;;;;;;;3.97;2.50;;;;;;;7.54;75.81;99923.89;123394;1102;104213;-76
2023/01/06 02:25:22;;;;;;;4.37;2.50;;;;;;;7.55;75.83;99917.82;123324;1099;107080;-76
2023/01/06 02:28:33;;;;;;;3.83;2.40;;;;;;;7.59;75.81;99924.08;123498;1099;104271;-77
2023/01/06 02:31:43;;;;;;;4.37;2.60;;;;;;;7.63;75.52;99935.52;123564;1099;104379;-77
2023/01/06 02:34:26;;;;;;;5.60;2.47;;;;;;;7.67;75.58;99937.42;123417;1102;104322;-77
2023/01/06 02:37:04;;;;;;;4.03;2.40;;;;;;;7.69;75.84;99936.63;123402;1102;104277;-77
2023/01/06 02:39:43;;;;;;;4.50;2.43;;;;;;;7.73;75.29;99927.22;123547;1102;104370;-77
2023/01/06 02:42:22;;;;;;;3.63;2.20;;;;;;;7.75;74.96;99943.82;123625;1100;104683;-77
2023/01/06 02:45:06;;;;;;;4.63;2.43;;;;;;;7.77;74.91;99946.49;123515;1099;104271;-77
2023/01/06 02:47:46;;;;;;;3.60;2.40;;;;;;;7.76;75.16;99948.22;123604;1099;104306;-77
2023/01/06 02:50:24;;;;;;;4.73;2.50;;;;;;;7.73;75.05;99958.55;123472;1099;104316;-78
2023/01/06 02:53:02;;;;;;;5.13;2.67;;;;;;;7.68;74.91;99949.63;123435;1099;104254;-77
2023/01/06 02:55:39;;;;;;;4.27;2.43;;;;;;;7.63;74.91;99936.39;123488;1099;104383;-77
2023/01/06 02:58:17;;;;;;;4.03;2.30;;;;;;;7.60;74.99;99958.90;123520;1099;104728;-77
2023/01/06 03:00:56;;;;;;;3.60;2.40;;;;;;;7.55;75.16;99959.59;123559;1099;104307;-77
2023/01/06 03:03:32;;;;;;;4.33;2.37;;;;;;;7.52;75.44;99953.38;123466;1102;104254;-76
2023/01/06 03:06:10;;;;;;;3.50;2.30;;;;;;;7.47;75.57;99952.31;123394;1102;104517;-78
2023/01/06 03:08:43;;;;;;;4.00;2.63;;;;;;;7.43;75.26;99951.28;123459;1102;104248;-78
2023/01/06 03:11:16;;;;;;;4.95;2.70;;;;;;;7.41;75.53;99944.23;123472;1099;104297;-78
2023/01/06 03:13:52;;;;;;;5.50;2.43;;;;;;;7.39;75.51;99949.40;123548;1099;104409;-78
2023/01/06 03:16:24;;;;;;;4.85;2.50;;;;;;;7.38;75.12;99934.55;123692;1099;104383;-78
2023/01/06 03:18:57;;;;;;;4.73;2.43;;;;;;;7.37;75.49;99943.23;123414;1100;104366;-78
2023/01/06 03:21:35;;;;;;;5.07;2.57;;;;;;;7.37;75.06;99948.46;123633;1099;104197;-76
2023/01/06 03:24:11;;;;;;;4.63;2.40;;;;;;;7.38;75.40;99943.27;123551;1098;104240;-77
2023/01/06 03:26:46;;;;;;;4.33;2.60;;;;;;;7.39;74.85;99944.18;124022;1099;104245;-77
2023/01/06 03:29:21;;;;;;;5.83;2.30;;;;;;;7.40;74.88;99951.16;123816;1099;104373;-77
2023/01/06 03:32:05;;;;;;;4.50;2.13;;;;;;;7.44;75.15;99946.97;123538;1099;104319;-77
2023/01/06 03:35:04;;;;;;;4.67;2.10;;;;;;;7.48;75.04;99965.43;123479;1099;104752;-77
2023/01/06 03:37:44;;;;;;;4.80;2.40;;;;;;;7.52;74.32;99954.25;123367;1099;104246;-78
2023/01/06 03:40:27;;;;;;;4.27;2.77;;;;;;;7.55;74.42;99964.81;123464;1099;104195;-77
2023/01/06 03:43:15;;;;;;;5.57;2.40;;;;;;;7.58;74.80;99957.95;123332;1099;104302;-77
2023/01/06 03:46:16;;;;;;;4.77;2.40;;;;;;;7.60;74.34;99969.34;123543;1099;104396;-77
2023/01/06 03:48:57;;;;;;;3.90;2.20;;;;;;;7.62;74.01;99985.95;123291;1102;104261;-77
2023/01/06 03:51:38;;;;;;;3.50;2.13;;;;;;;7.62;75.01;99980.72;123348;1099;104462;-78
2023/01/06 03:54:22;;;;;;;3.57;2.30;;;;;;;7.53;75.29;99991.72;123429;1099;104389;-77
2023/01/06 03:57:04;;;;;;;3.40;2.30;;;;;;;7.40;76.51;99985.09;123367;1102;104370;-77
2023/01/06 03:59:41;;;;;;;3.50;2.00;;;;;;;7.29;76.74;99982.08;123343;1099;104312;-77
2023/01/06 04:02:14;;;;;;;4.10;2.20;;;;;;;7.20;76.89;99990.41;123401;1099;104355;-77
2023/01/06 04:04:59;;;;;;;4.87;2.57;;;;;;;7.13;76.80;99996.20;123400;1102;104306;-77
2023/01/06 04:07:32;;;;;;;4.07;2.27;;;;;;;7.07;77.23;100003.77;123660;1099;104299;-78
2023/01/06 04:10:03;;;;;;;3.57;2.00;;;;;;;7.04;77.00;100000.15;123394;1099;104437;-77
2023/01/06 04:12:41;;;;;;;4.63;2.47;;;;;;;7.02;77.56;100014.01;123363;1101;104469;-77
2023/01/06 04:15:18;;;;;;;4.00;2.60;;;;;;;7.01;77.41;100026.98;123594;1099;104203;-77
2023/01/06 04:17:51;;;;;;;4.37;2.40;;;;;;;7.01;77.48;100006.11;123650;1099;104222;-78
2023/01/06 04:20:26;;;;;;;3.23;2.13;;;;;;;7.00;77.70;100020.89;123406;1099;104248;-78
2023/01/06 04:23:02;;;;;;;5.73;2.50;;;;;;;7.02;77.33;100023.56;123376;1099;104270;-78
2023/01/06 04:25:37;;;;;;;3.83;2.20;;;;;;;7.01;77.20;100033.12;123323;1100;104358;-77
2023/01/06 04:28:14;;;;;;;4.87;2.40;;;;;;;7.01;77.03;100035.73;123421;1102;104256;-77
2023/01/06 04:30:48;;;;;;;4.08;2.17;;;;;;;7.02;77.36;100036.61;123366;1099;104680;-78
2023/01/06 04:33:28;;;;;;;4.30;2.13;;;;;;;7.00;77.04;100052.19;123742;1099;104329;-78
2023/01/06 04:36:09;;;;;;;5.10;2.20;;;;;;;7.00;76.66;100046.09;123480;1099;104683;-77
2023/01/06 04:38:39;;;;;;;;;;;;;;;6.97;77.08;100051.18;123705;1099;104304;-77
2023/01/06 04:41:11;;;;;;;2.80;2.00;;;;;;;6.97;76.83;100059.01;123538;1099;104290;-78
2023/01/06 04:43:42;;;;;;;4.43;2.47;;;;;;;6.95;77.04;100052.81;123961;1099;104232;-78
2023/01/06 04:46:13;;;;;;;4.03;2.10;;;;;;;6.94;77.07;100067.58;123808;1099;104351;-77
2023/01/06 04:49:04;;;;;;;3.10;2.33;;;;;;;6.93;76.83;100073.61;123737;1099;104347;-77
2023/01/06 04:51:39;;;;;;;3.58;2.27;;;;;;;6.93;77.20;100078.83;123739;1099;104731;-76
2023/01/06 04:54:10;;;;;;;2.47;2.07;;;;;;;6.94;76.89;100079.74;123728;1099;104648;-76
2023/01/06 04:56:41;;;;;;;3.55;2.10;;;;;;;6.95;77.06;100089.33;123899;1099;104328;-76
2023/01/06 04:59:13;;;;;;;4.57;2.30;;;;;;;6.93;77.05;100084.05;123923;1099;104277;-78
2023/01/06 05:01:44;;;;;;;3.60;2.23;;;;;;;6.93;77.03;100109.25;123917;1099;104313;-77
2023/01/06 05:04:15;;;;;;;3.77;2.10;;;;;;;6.93;76.66;100097.09;123749;1099;104393;-79
2023/01/06 05:06:46;;;;;;;3.80;2.10;;;;;;;6.94;76.30;100103.22;123640;1099;104254;-75
2023/01/06 05:09:18;;;;;;;2.47;1.90;;;;;;;6.93;76.50;100102.30;123406;1099;104278;-76
2023/01/06 05:11:49;;;;;;;3.53;2.27;;;;;;;6.93;76.63;100106.64;123559;1099;104248;-76
2023/01/06 05:14:20;;;;;;;2.60;2.17;;;;;;;6.93;76.46;100124.90;123466;1099;104353;-75
2023/01/06 05:16:52;;;;;;;4.13;2.30;;;;;;;6.93;76.27;100112.73;123355;1099;104419;-76
2023/01/06 05:22:15;;;;;;;3.70;2.30;;;;;;;6.93;76.20;100123.17;123668;1099;104650;-76
2023/01/06 05:24:47;;;;;;;5.20;2.55;;;;;;;6.92;75.91;100128.32;123520;1099;104277;-76
2023/01/06 05:27:18;;;;;;;3.97;1.73;;;;;;;6.91;75.59;100135.27;123628;1099;104169;-76
2023/01/06 05:29:49;;;;;;;4.57;1.80;;;;;;;6.89;75.66;100136.01;123596;1099;104281;-76
2023/01/06 05:32:21;;;;;;;2.97;2.17;;;;;;;6.87;75.89;100143.77;123478;1099;104274;-75
2023/01/06 05:34:53;;;;;;;3.27;1.83;;;;;;;6.86;75.91;100141.09;123681;1099;104271;-76
2023/01/06 05:37:24;;;;;;;2.83;1.90;;;;;;;6.84;75.35;100156.70;123658;1099;104277;-75
2023/01/06 05:39:56;;;;;;;2.90;1.90;;;;;;;6.81;75.40;100153.95;123555;1099;104319;-76
2023/01/06 05:42:27;;;;;;;2.87;1.80;;;;;;;6.78;75.21;100128.62;123493;1099;104297;-76
2023/01/06 05:44:58;;;;;;;2.03;1.57;;;;;;;6.76;75.15;100147.61;123494;1099;104265;-76
2023/01/06 05:47:29;;;;;;;3.07;1.90;;;;;;;6.74;75.17;100157.98;123659;1099;104273;-76
2023/01/06 05:50:00;;;;;;;2.30;1.90;;;;;;;6.70;74.83;100176.94;123614;1102;104181;-76
2023/01/06 05:52:32;;;;;;;1.93;1.73;;;;;;;6.70;74.74;100166.50;123545;1099;104489;-75
2023/01/06 05:55:03;;;;;;;2.97;1.90;;;;;;;6.69;75.15;100175.13;123672;1099;104278;-76
2023/01/06 05:57:36;;;;;;;3.10;1.80;;;;;;;6.67;74.85;100182.00;123527;1099;104303;-76
2023/01/06 06:00:10;;;;;;;2.80;1.90;;;;;;;6.66;74.87;100181.09;123651;1099;104322;-75
2023/01/06 06:02:44;;;;;;;2.00;1.80;;;;;;;6.65;74.87;100194.97;123698;1099;104258;-76
2023/01/06 06:05:16;;;;;;;2.37;1.80;;;;;;;6.64;74.80;100195.78;123704;1099;104358;-76
2023/01/06 06:07:54;;;;;;;3.23;1.90;;;;;;;6.63;74.62;100196.59;123664;1099;104287;-76
2023/01/06 06:10:25;;;;;;;2.93;2.10;;;;;;;6.63;74.37;100208.75;123582;1099;104261;-75
2023/01/06 06:12:57;;;;;;;3.70;2.50;;;;;;;6.63;74.26;100225.27;123972;1099;104328;-75
2023/01/06 06:15:28;;;;;;;3.53;2.50;;;;;;;6.63;73.97;100227.88;124041;1099;104383;-76
2023/01/06 06:18:01;;;;;;;4.55;2.40;;;;;;;6.65;74.17;100226.26;123955;1099;104396;-75
2023/01/06 06:20:32;;;;;;;5.03;2.07;;;;;;;6.65;74.26;100240.98;124187;1099;104351;-76
2023/01/06 06:23:05;;;;;;;3.45;1.95;;;;;;;6.65;74.20;100235.77;124371;1099;104255;-76
2023/01/06 06:25:36;;;;;;;4.20;2.50;;;;;;;6.64;74.14;100247.92;124399;1099;101862;-75
2023/01/06 06:28:07;;;;;;;3.27;2.10;;;;;;;6.66;74.27;100261.92;124626;1099;104277;-75
2023/01/06 06:30:39;;;;;;;3.60;2.07;;;;;;;6.68;74.19;100261.99;124463;1099;104203;-76
2023/01/06 06:33:10;;;;;;;5.93;2.57;;;;;;;6.68;73.80;100263.72;124749;1099;104824;-77
2023/01/06 06:35:44;;;;;;;3.37;2.23;;;;;;;6.70;73.68;100275.11;124771;1099;104169;-76
2023/01/06 06:38:15;;;;;;;6.25;2.50;;;;;;;6.71;73.65;100287.33;124477;1099;104347;-78
2023/01/06 06:40:46;;;;;;;5.57;2.70;;;;;;;6.72;73.03;100296.95;125010;1099;102500;-77
2023/01/06 06:43:20;;;;;;;2.87;1.90;;;;;;;6.72;73.29;100283.91;124981;1099;104357;-77
2023/01/06 06:45:51;;;;;;;3.47;1.87;;;;;;;6.72;72.67;100290.02;124348;1099;104175;-78
2023/01/06 06:48:23;;;;;;;5.33;2.23;;;;;;;6.74;72.81;100277.93;124626;1099;104281;-77
2023/01/06 06:51:00;;;;;;;4.60;2.40;;;;;;;6.76;72.18;100296.26;124714;1099;104245;-78
2023/01/06 06:53:32;;;;;;;3.07;2.10;;;;;;;6.75;71.47;100290.16;124691;1099;104181;-77
2023/01/06 06:56:07;;;;;;;4.83;2.30;;;;;;;6.79;72.01;100288.58;124595;1098;104235;-78
2023/01/06 06:58:48;;;;;;;2.93;2.17;;;;;;;6.79;71.15;100293.80;124951;1098;104309;-77
2023/01/06 07:01:23;;;;;;;2.00;1.80;;;;;;;6.81;71.40;100316.53;125007;1099;104229;-75
2023/01/06 07:03:55;;;;;;;6.67;2.47;;;;;;;6.82;72.00;100296.55;124940;1099;104830;-76
2023/01/06 07:06:28;;;;;;;2.52;2.08;;;;;;;6.83;71.61;100308.78;125028;1099;104130;-76
2023/01/06 07:09:00;;;;;;;3.13;2.23;;;;;;;6.81;71.13;100300.88;124910;1098;104178;-76
2023/01/06 07:11:31;;;;;;;3.90;1.90;;;;;;;6.82;71.01;100318.33;124967;1099;104257;-78
2023/01/06 07:14:02;;;;;;;6.30;2.10;;;;;;;6.84;70.92;100321.02;124855;1099;104254;-78
2023/01/06 07:16:49;;;;;;;3.07;2.03;;;;;;;6.84;71.00;100332.33;124783;1099;104175;-77
2023/01/06 07:19:20;;;;;;;3.63;2.10;;;;;;;6.86;70.59;100344.53;124548;1099;102291;-76
2023/01/06 07:21:52;;;;;;;3.73;2.20;;;;;;;6.90;70.51;100347.36;124408;1099;103579;-77
2023/01/06 07:24:24;;;;;;;3.27;2.23;;;;;;;6.91;70.66;100343.94;124607;1102;104355;-77
2023/01/06 07:26:56;;;;;;;5.20;2.40;;;;;;;6.91;69.81;100354.38;124601;1099;104143;-76
2023/01/06 07:29:27;;;;;;;7.93;1.70;;;;;;;6.93;69.26;100373.59;124792;1099;104280;-77
2023/01/06 07:31:59;;;;;;;5.30;2.40;;;;;;;6.97;70.34;100362.50;124522;1099;104255;-78
2023/01/06 07:34:30;;;;;;;4.27;2.50;;;;;;;6.99;69.98;100373.00;124503;1102;104258;-79
2023/01/06 07:37:02;;;;;;;4.60;2.25;;;;;;;6.99;69.66;100380.83;124592;1099;104281;-77
2023/01/06 07:39:34;;;;;;;4.33;2.23;;;;;;;7.01;69.93;100369.66;124717;1098;104165;-77
2023/01/06 07:42:07;;;;;;;3.70;2.13;;;;;;;7.06;69.91;100379.40;124631;1099;102151;-78
2023/01/06 07:44:41;;;;;;;2.97;2.10;;;;;;;7.09;69.28;100380.47;126676;1098;101829;-78
2023/01/06 07:47:13;;;;;;;3.20;2.10;;;;;;;7.10;69.49;100390.05;126227;1099;102099;-78
2023/01/06 07:49:47;;;;;;;4.77;2.10;;;;;;;7.12;68.99;100388.44;126527;1098;102050;-76
2023/01/06 07:52:24;;;;;;;2.80;2.00;;;;;;;7.12;69.00;100393.66;126837;1098;102410;-76
2023/01/06 07:54:58;;;;;;;5.87;2.37;;;;;;;7.13;69.49;100398.03;126445;1098;102270;-75
2023/01/06 07:57:31;;;;;;;3.40;1.92;;;;;;;7.14;69.50;100397.22;126743;1098;101867;-75
2023/01/06 08:00:04;;;;;;;3.17;2.20;;;;;;;7.15;69.81;100401.63;126352;1098;102001;-76
2023/01/06 08:02:43;;;;;;;4.80;2.43;;;;;;;7.16;69.98;100412.95;126626;1098;102506;-76
2023/01/06 08:05:15;;;;;;;4.13;2.50;;;;;;;7.16;70.38;100408.62;126347;1099;103097;-76
2023/01/06 08:07:47;;;;;;;4.83;2.50;;;;;;;7.13;69.92;100429.34;124917;1098;104182;-78
2023/01/06 08:10:20;;;;;;;4.00;2.30;;;;;;;7.14;70.39;100430.27;124514;1099;104245;-75
2023/01/06 08:12:51;;;;;;;4.97;2.43;;;;;;;7.16;70.26;100429.50;124293;1099;104677;-75
2023/01/06 08:15:23;;;;;;;6.23;2.90;;;;;;;7.17;69.60;100430.41;124455;1099;104251;-76
2023/01/06 08:18:00;;;;;;;6.70;2.40;;;;;;;7.19;69.71;100440.08;124512;1099;104328;-77
2023/01/06 08:20:33;;;;;;;5.63;2.33;;;;;;;7.20;70.00;100435.78;125227;1098;104182;-77
2023/01/06 08:23:08;;;;;;;4.37;2.73;;;;;;;7.23;69.57;100421.96;125056;1099;104683;-77
2023/01/06 08:25:40;;;;;;;7.30;2.50;;;;;;;7.23;68.84;100424.57;124992;1098;104309;-76
2023/01/06 08:28:11;;;;;;;4.93;2.20;;;;;;;7.24;68.46;100440.30;125152;1099;102429;-77
2023/01/06 08:30:44;;;;;;;6.93;2.70;;;;;;;7.25;68.65;100449.05;124645;1099;104169;-77
2023/01/06 08:33:16;;;;;;;14.40;3.37;;;;;;;7.26;68.48;100453.42;125009;1098;104242;-77
2023/01/06 08:35:47;;;;;;;4.90;2.40;;;;;;;7.27;68.27;100460.45;124970;1099;104222;-76
2023/01/06 08:38:20;;;;;;;5.60;2.17;;;;;;;7.27;67.68;100457.84;124938;1099;104319;-77
2023/01/06 08:40:53;;;;;;;5.30;2.60;;;;;;;7.31;68.22;100459.79;124873;1099;104054;-76
2023/01/06 08:43:26;;;;;;;3.70;2.47;;;;;;;7.34;68.27;100475.59;125286;1099;104159;-76
2023/01/06 08:46:01;;;;;;;5.43;2.63;;;;;;;7.34;67.83;100481.70;124558;1099;104165;-76
2023/01/06 08:48:34;;;;;;;5.10;2.50;;;;;;;7.32;67.33;100485.97;125175;1099;104281;-76
2023/01/06 08:51:07;;;;;;;6.20;2.87;;;;;;;7.33;68.28;100469.46;124836;1099;104271;-77
2023/01/06 08:53:39;;;;;;;5.03;2.33;;;;;;;7.37;68.04;100480.97;124749;1099;104223;-77
2023/01/06 08:56:16;;;;;;;4.43;2.50;;;;;;;7.40;67.99;100483.69;124820;1098;102567;-77
2023/01/06 08:58:50;;;;;;;3.97;2.50;;;;;;;7.41;67.66;100485.49;124661;1099;104252;-76
2023/01/06 09:01:26;;;;;;;5.07;2.60;;;;;;;7.40;67.23;100480.20;125151;1099;104181;-76
2023/01/06 09:04:00;;;;;;;6.87;2.60;;;;;;;7.37;66.80;100486.19;125123;1099;102349;-77
2023/01/06 09:06:33;;;;;;;6.53;2.27;;;;;;;7.34;67.45;100486.92;124754;1099;104267;-75
2023/01/06 09:09:06;;;;;;;4.57;2.50;;;;;;;7.29;67.80;100492.73;124827;1099;102491;-77
2023/01/06 09:11:40;;;;;;;8.33;3.60;;;;;;;7.28;67.45;100486.62;124727;1099;103184;-77
2023/01/06 09:14:13;;;;;;;11.17;3.10;;;;;;;7.26;67.35;100485.67;124699;1099;104194;-77
2023/01/06 09:16:46;;;;;;;5.67;2.50;;;;;;;7.23;67.33;100510.70;124691;1099;104156;-76
2023/01/06 09:19:21;;;;;;;4.25;2.70;;;;;;;7.21;67.92;100494.96;124308;1099;104270;-76
2023/01/06 09:21:54;;;;;;;6.53;2.80;;;;;;;7.22;67.73;100490.66;124576;1099;104247;-75
2023/01/06 09:24:26;;;;;;;5.00;2.70;;;;;;;7.17;67.34;100493.05;124660;1099;104348;-76
2023/01/06 09:26:58;;;;;;;5.20;2.75;;;;;;;7.14;67.55;100485.95;124583;1099;102156;-76
2023/01/06 09:29:30;;;;;;;4.27;2.63;;;;;;;7.13;67.28;100486.75;124724;1099;104172;-77
2023/01/06 09:32:03;;;;;;;6.63;3.10;;;;;;;7.16;67.89;100486.91;124777;1099;104168;-76
2023/01/06 09:34:35;;;;;;;6.55;2.80;;;;;;;7.16;67.16;100509.52;124755;1099;104223;-77
2023/01/06 09:37:07;;;;;;;6.63;2.90;;;;;;;7.13;67.61;100494.59;124903;1099;104245;-76
2023/01/06 09:39:39;;;;;;;6.87;2.97;;;;;;;7.12;67.73;100505.86;124656;1100;103448;-76
2023/01/06 09:42:33;;;;;;;5.10;2.70;;;;;;;7.08;68.01;100521.29;124985;1099;104339;-77
2023/01/06 09:45:06;;;;;;;;;;;;;;;7.04;67.90;100509.78;124563;1099;104225;-78
2023/01/06 09:47:44;;;;;;;5.53;2.73;;;;;;;7.00;68.00;100536.56;124805;1099;104249;-76
2023/01/06 09:50:26;;;;;;;3.57;2.23;;;;;;;6.96;68.04;100535.48;124547;1099;104185;-76
2023/01/06 09:53:03;;;;;;;3.50;2.60;;;;;;;6.98;68.01;100536.48;124753;1099;102515;-77
2023/01/06 09:55:39;;;;;;;6.93;2.93;;;;;;;7.02;67.92;100529.69;125192;1099;104242;-77
2023/01/06 09:58:17;;;;;;;4.50;2.63;;;;;;;7.02;67.89;100541.02;124640;1099;102286;-76
2023/01/06 10:00:51;;;;;;;12.90;3.70;;;;;;;7.07;68.32;100522.98;124923;1099;104354;-77
2023/01/06 10:03:25;;;;;;;6.15;2.40;;;;;;;7.07;67.59;100541.25;125045;1099;103023;-77
2023/01/06 10:06:10;;;;;;;4.05;2.05;;;;;;;7.00;67.25;100534.83;124841;1099;102658;-78
2023/01/06 10:08:53;;;;;;;3.90;1.90;;;;;;;6.98;67.31;100532.95;125059;1099;103274;-77
2023/01/06 10:11:33;;;;;;;3.30;2.12;;;;;;;6.92;67.51;100537.86;124638;1099;104188;-77
2023/01/06 10:14:16;;;;;;;5.93;2.00;;;;;;;6.87;67.53;100550.66;124979;1099;103675;-77
2023/01/06 10:17:11;;;;;;;2.43;1.93;;;;;;;6.86;67.41;100550.59;127052;1098;101868;-77
2023/01/06 10:19:59;;;;;;;3.67;2.17;;;;;;;6.83;67.44;100549.63;126552;1098;102090;-78
2023/01/06 10:25:37;;;;;;;2.30;1.73;;;;;;;6.83;67.02;100554.84;126000;1099;102961;-77
2023/01/06 10:28:22;;;;;;;4.00;2.10;;;;;;;6.85;66.98;100554.92;126151;1099;102294;-77
2023/01/06 10:30:58;;;;;;;3.55;1.95;;;;;;;6.82;67.09;100560.89;126595;1098;101920;-75
2023/01/06 10:33:34;;;;;;;4.73;1.70;;;;;;;6.80;66.74;100565.11;126126;1099;102200;-74
2023/01/06 10:36:14;;;;;;;3.97;2.03;;;;;;;6.83;66.46;100569.61;126814;1098;103508;-74
2023/01/06 10:38:51;;;;;;;3.20;2.17;;;;;;;6.89;66.97;100555.96;126823;1098;102154;-76
2023/01/06 10:41:34;;;;;;;5.30;2.30;;;;;;;6.96;67.20;100560.69;126817;1098;102076;-76
2023/01/06 10:44:08;;;;;;;4.00;1.83;;;;;;;6.96;66.72;100566.79;126554;1099;102007;-76
2023/01/06 10:46:44;;;;;;;2.52;2.02;;;;;;;6.89;66.50;100582.97;126221;1099;102195;-75
2023/01/06 10:49:21;;;;;;;3.50;1.90;;;;;;;6.86;66.88;100581.89;126044;1099;104460;-76
2023/01/06 10:51:59;;;;;;;3.23;1.60;;;;;;;6.82;66.79;100573.94;126167;1099;102495;-75
2023/01/06 10:54:37;;;;;;;3.30;1.70;;;;;;;6.84;66.29;100574.91;126803;1098;101761;-75
2023/01/06 10:57:17;;;;;;;3.70;1.97;;;;;;;6.87;66.43;100579.36;125387;1099;102089;-75
2023/01/06 11:00:14;;;;;;;2.87;2.00;;;;;;;6.90;66.76;100581.24;125588;1098;104175;-75
2023/01/06 11:03:03;;;;;;;3.47;1.47;;;;;;;6.86;65.61;100607.97;125467;1099;102041;-76
2023/01/06 11:05:36;;;;;;;4.30;2.03;;;;;;;6.83;65.69;100598.30;124706;1099;104185;-76
2023/01/06 11:08:13;;;;;;;3.50;2.00;;;;;;;6.83;65.71;100591.36;125117;1099;102076;-76
2023/01/06 11:10:52;;;;;;;2.73;1.53;;;;;;;6.77;64.34;100604.08;125108;1099;102142;-75
2023/01/06 11:13:27;;;;;;;2.83;1.63;;;;;;;6.74;64.00;100590.88;125317;1099;101896;-76
2023/01/06 11:16:05;;;;;;;2.77;1.50;;;;;;;6.71;64.33;100601.14;125136;1099;104345;-76
2023/01/06 11:18:37;;;;;;;2.17;1.60;;;;;;;6.70;64.05;100616.70;124867;1099;104325;-76
2023/01/06 11:21:12;;;;;;;5.33;1.83;;;;;;;6.71;63.97;100622.00;125107;1099;104211;-78
2023/01/06 11:23:49;;;;;;;2.87;1.70;;;;;;;6.68;64.23;100603.59;125075;1099;102517;-77
2023/01/06 11:26:23;;;;;;;3.93;1.60;;;;;;;6.69;63.98;100612.33;124876;1098;103036;-76
2023/01/06 11:28:55;;;;;;;4.37;1.40;;;;;;;6.58;64.25;100635.22;124983;1099;102635;-75
2023/01/06 11:31:29;;;;;;;4.10;1.73;;;;;;;6.53;64.49;100629.76;125142;1099;102518;-75
2023/01/06 11:34:05;;;;;;;4.70;2.07;;;;;;;6.47;64.31;100652.89;125212;1099;102604;-75
2023/01/06 11:36:46;;;;;;;5.00;1.83;;;;;;;6.46;64.63;100661.52;124964;1099;102553;-78
2023/01/06 11:39:25;;;;;;;1.83;1.60;;;;;;;6.44;64.71;100666.64;124784;1099;102258;-76
2023/01/06 11:42:03;;;;;;;1.70;1.60;;;;;;;6.38;63.86;100674.13;125378;1099;104245;-75
2023/01/06 11:44:52;;;;;;;2.20;2.00;;;;;;;6.35;64.20;100673.95;125289;1099;104270;-75
2023/01/06 11:47:27;;;;;;;3.77;2.10;;;;;;;6.38;64.45;100681.94;125416;1099;103181;-75
2023/01/06 11:50:03;;;;;;;3.23;2.10;;;;;;;6.40;64.63;100677.70;126590;1099;102237;-76
2023/01/06 11:52:35;;;;;;;3.53;2.47;;;;;;;6.40;64.34;100682.03;126492;1099;101963;-75
2023/01/06 11:55:26;;;;;;;4.13;2.40;;;;;;;6.38;64.12;100694.97;126262;1099;102622;-75
2023/01/06 11:58:09;;;;;;;2.57;2.10;;;;;;;6.33;64.46;100701.65;126671;1098;101949;-75
2023/01/06 12:00:46;;;;;;;2.43;1.90;;;;;;;6.24;64.06;100709.84;126750;1098;102510;-76
2023/01/06 12:03:27;;;;;;;3.63;2.10;;;;;;;6.19;64.26;100697.38;126742;1099;102016;-77